createdAt,value
2022-12-12T00:00:43.811Z,-1.34
2022-12-12T00:03:11.048Z,-1.38
2022-12-12T00:05:37.925Z,-1.38
2022-12-12T00:08:04.992Z,-1.39
2022-12-12T00:10:32.503Z,-1.39
2022-12-12T00:12:59.305Z,-1.40
2022-12-12T00:15:27.633Z,-1.40
2022-12-12T00:17:54.765Z,-1.42
2022-12-12T00:20:21.569Z,-1.41
2022-12-12T00:22:48.331Z,-1.42
2022-12-12T00:25:15.394Z,-1.42
2022-12-12T00:27:42.306Z,-1.42
2022-12-12T00:30:09.927Z,-1.43
2022-12-12T00:32:36.797Z,-1.44
2022-12-12T00:35:03.911Z,-1.43
2022-12-12T00:37:30.697Z,-1.45
2022-12-12T00:39:57.509Z,-1.46
2022-12-12T00:42:27.104Z,-1.46
2022-12-12T00:44:53.880Z,-1.48
2022-12-12T00:47:20.690Z,-1.47
2022-12-12T00:49:47.461Z,-1.48
2022-12-12T00:52:14.229Z,-1.48
2022-12-12T00:54:41.016Z,-1.48
2022-12-12T00:57:07.792Z,-1.46
2022-12-12T00:59:34.694Z,-1.47
2022-12-12T01:02:01.504Z,-1.45
2022-12-12T01:04:28.313Z,-1.46
2022-12-12T01:06:55.156Z,-1.45
2022-12-12T01:09:21.923Z,-1.44
2022-12-12T01:11:48.801Z,-1.43
2022-12-12T01:14:15.589Z,-1.42
2022-12-12T01:16:42.757Z,-1.44
2022-12-12T01:19:09.504Z,-1.42
2022-12-12T01:21:37.254Z,-1.44
2022-12-12T01:24:04.416Z,-1.41
2022-12-12T01:26:31.182Z,-1.42
2022-12-12T01:28:57.945Z,-1.41
2022-12-12T01:31:25.152Z,-1.41
2022-12-12T01:33:52.080Z,-1.41
2022-12-12T01:36:21.843Z,-1.42
2022-12-12T01:38:51.706Z,-1.42
2022-12-12T01:41:18.919Z,-1.41
2022-12-12T01:43:46.327Z,-1.43
2022-12-12T01:46:22.224Z,-1.42
2022-12-12T01:49:00.816Z,-1.44
2022-12-12T01:51:28.308Z,-1.47
2022-12-12T01:54:03.374Z,-1.47
2022-12-12T01:56:31.143Z,-1.50
2022-12-12T01:58:59.594Z,-1.51
2022-12-12T02:01:26.688Z,-1.53
2022-12-12T02:03:54.018Z,-1.55
2022-12-12T02:06:25.288Z,-1.57
2022-12-12T02:08:55.691Z,-1.59
2022-12-12T02:11:22.485Z,-1.61
2022-12-12T02:13:50.200Z,-1.63
2022-12-12T02:16:49.688Z,-1.67
2022-12-12T02:19:48.956Z,-1.70
2022-12-12T02:22:31.121Z,-1.77
2022-12-12T02:25:30.329Z,-1.78
2022-12-12T02:28:45.785Z,-1.84
2022-12-12T02:31:22.260Z,-1.87
2022-12-12T02:34:15.744Z,-1.89
2022-12-12T02:37:06.576Z,-1.91
2022-12-12T02:40:10.019Z,-1.93
2022-12-12T02:42:50.158Z,-1.94
2022-12-12T02:45:24.121Z,-1.96
2022-12-12T02:48:04.127Z,-1.96
2022-12-12T02:50:31.676Z,-1.98
2022-12-12T02:53:00.343Z,-1.97
2022-12-12T02:55:27.474Z,-1.97
2022-12-12T02:57:55.319Z,-1.98
2022-12-12T03:00:22.229Z,-1.98
2022-12-12T03:03:36.358Z,-1.97
2022-12-12T03:06:27.728Z,-2.02
2022-12-12T03:09:50.624Z,-2.05
2022-12-12T03:12:31.779Z,-2.06
2022-12-12T03:15:22.754Z,-2.08
2022-12-12T03:18:31.706Z,-2.09
2022-12-12T03:21:22.864Z,-2.11
2022-12-12T03:23:57.717Z,-2.12
2022-12-12T03:26:40.145Z,-2.11
2022-12-12T03:29:15.849Z,-2.12
2022-12-12T03:31:49.908Z,-2.12
2022-12-12T03:34:26.314Z,-2.13
2022-12-12T03:37:01.435Z,-2.13
2022-12-12T03:39:39.324Z,-2.13
2022-12-12T03:42:14.741Z,-2.13
2022-12-12T03:44:58.163Z,-2.14
2022-12-12T03:47:36.915Z,-2.15
2022-12-12T03:50:13.378Z,-2.14
2022-12-12T03:52:52.712Z,-2.13
2022-12-12T03:56:00.267Z,-2.15
2022-12-12T03:58:34.496Z,-2.15
2022-12-12T04:01:07.731Z,-2.15
2022-12-12T04:03:59.459Z,-2.14
2022-12-12T04:06:59.418Z,-2.15
2022-12-12T04:09:46.213Z,-2.17
2022-12-12T04:12:48.405Z,-2.18
2022-12-12T04:15:46.948Z,-2.22
2022-12-12T04:18:32.096Z,-2.23
2022-12-12T04:21:52.562Z,-2.25
2022-12-12T04:24:57.067Z,-2.26
2022-12-12T04:27:29.014Z,-2.32
2022-12-12T04:30:08.980Z,-2.35
2022-12-12T04:33:11.768Z,-2.35
2022-12-12T04:35:45.670Z,-2.32
2022-12-12T04:38:22.712Z,-2.32
2022-12-12T04:40:57.656Z,-2.31
2022-12-12T04:43:37.291Z,-2.32
2022-12-12T04:46:13.853Z,-2.32
2022-12-12T04:48:50.721Z,-2.33
2022-12-12T04:51:28.336Z,-2.32
2022-12-12T04:54:13.438Z,-2.32
2022-12-12T04:56:44.539Z,-2.32
2022-12-12T04:59:11.700Z,-2.31
2022-12-12T05:01:56.366Z,-2.31
2022-12-12T05:05:15.054Z,-2.32
2022-12-12T05:07:49.288Z,-2.33
2022-12-12T05:10:18.676Z,-2.34
2022-12-12T05:12:47.511Z,-2.33
2022-12-12T05:15:16.767Z,-2.31
2022-12-12T05:17:52.325Z,-2.30
2022-12-12T05:20:30.033Z,-2.30
2022-12-12T05:23:01.820Z,-2.32
2022-12-12T05:25:33.556Z,-2.32
2022-12-12T05:28:00.801Z,-2.32
2022-12-12T05:30:30.964Z,-2.32
2022-12-12T05:32:58.478Z,-2.31
2022-12-12T05:35:25.992Z,-2.33
2022-12-12T05:37:53.490Z,-2.32
2022-12-12T05:40:23.671Z,-2.33
2022-12-12T05:42:56.271Z,-2.33
2022-12-12T05:45:23.397Z,-2.36
2022-12-12T05:47:50.671Z,-2.36
2022-12-12T05:50:18.228Z,-2.36
2022-12-12T05:52:45.773Z,-2.37
2022-12-12T05:55:16.228Z,-2.37
2022-12-12T05:57:43.595Z,-2.38
2022-12-12T06:00:12.866Z,-2.40
2022-12-12T06:02:40.283Z,-2.40
2022-12-12T06:05:11.384Z,-2.40
2022-12-12T06:07:38.850Z,-2.40
2022-12-12T06:10:06.655Z,-2.42
2022-12-12T06:12:33.493Z,-2.42
2022-12-12T06:15:00.315Z,-2.44
2022-12-12T06:17:31.393Z,-2.44
2022-12-12T06:20:00.008Z,-2.46
2022-12-12T06:22:32.350Z,-2.45
2022-12-12T06:25:17.979Z,-2.49
2022-12-12T06:27:52.693Z,-2.49
2022-12-12T06:30:20.530Z,-2.51
2022-12-12T06:32:53.668Z,-2.51
2022-12-12T06:35:21.108Z,-2.51
2022-12-12T06:37:53.767Z,-2.50
2022-12-12T06:40:31.393Z,-2.49
2022-12-12T06:43:04.675Z,-2.50
2022-12-12T06:45:35.116Z,-2.50
2022-12-12T06:48:05.160Z,-2.48
2022-12-12T06:50:33.496Z,-2.43
2022-12-12T06:53:12.095Z,-2.34
2022-12-12T06:55:53.000Z,-2.25
2022-12-12T06:58:23.380Z,-2.18
2022-12-12T07:00:55.035Z,-2.08
2022-12-12T07:03:25.457Z,-1.99
2022-12-12T07:05:55.934Z,-1.93
2022-12-12T07:08:24.078Z,-1.85
2022-12-12T07:10:52.208Z,-1.77
2022-12-12T07:13:20.407Z,-1.70
2022-12-12T07:15:50.533Z,-1.64
2022-12-12T07:18:19.606Z,-1.58
2022-12-12T07:20:47.538Z,-1.53
2022-12-12T07:23:15.968Z,-1.49
2022-12-12T07:25:45.502Z,-1.42
2022-12-12T07:28:18.050Z,-1.36
2022-12-12T07:30:51.688Z,-1.31
2022-12-12T07:33:20.489Z,-1.25
2022-12-12T07:35:51.641Z,-1.20
2022-12-12T07:38:22.162Z,-1.12
2022-12-12T07:40:50.012Z,-1.07
2022-12-12T07:43:18.046Z,-1.02
2022-12-12T07:45:47.864Z,-0.95
2022-12-12T07:48:16.295Z,-0.88
2022-12-12T07:50:47.333Z,-0.83
2022-12-12T07:53:15.315Z,-0.75
2022-12-12T07:55:43.449Z,-0.69
2022-12-12T07:58:13.695Z,-0.64
2022-12-12T08:00:43.404Z,-0.59
2022-12-12T08:03:11.353Z,-0.52
2022-12-12T08:05:44.155Z,-0.47
2022-12-12T08:08:14.645Z,-0.43
2022-12-12T08:10:42.962Z,-0.39
2022-12-12T08:13:11.210Z,-0.34
2022-12-12T08:15:39.462Z,-0.29
2022-12-12T08:18:10.403Z,-0.24
2022-12-12T08:20:41.390Z,-0.19
2022-12-12T08:23:09.512Z,-0.13
2022-12-12T08:25:42.623Z,-0.10
2022-12-12T08:28:10.723Z,-0.03
2022-12-12T08:30:41.120Z,0.01
2022-12-12T08:33:09.223Z,0.06
2022-12-12T08:35:37.191Z,0.12
2022-12-12T08:38:07.943Z,0.16
2022-12-12T08:40:36.765Z,0.21
2022-12-12T08:43:05.058Z,0.25
2022-12-12T08:45:32.822Z,0.31
2022-12-12T08:48:00.628Z,0.34
2022-12-12T08:50:28.844Z,0.38
2022-12-12T08:52:56.820Z,0.42
2022-12-12T08:55:30.675Z,0.48
2022-12-12T08:57:58.605Z,0.52
2022-12-12T09:00:29.527Z,0.52
2022-12-12T09:02:57.755Z,0.56
2022-12-12T09:05:26.027Z,0.63
2022-12-12T09:07:54.441Z,0.68
2022-12-12T09:10:25.012Z,0.72
2022-12-12T09:12:53.723Z,0.77
2022-12-12T09:15:22.306Z,0.80
2022-12-12T09:17:50.735Z,0.83
2022-12-12T09:20:23.567Z,0.88
2022-12-12T09:22:51.487Z,0.93
2022-12-12T09:25:25.498Z,0.97
2022-12-12T09:27:53.540Z,1.01
2022-12-12T09:30:22.413Z,1.03
2022-12-12T09:32:51.730Z,1.04
2022-12-12T09:35:18.531Z,1.06
2022-12-12T09:37:45.294Z,1.08
2022-12-12T09:40:23.391Z,1.10
2022-12-12T09:42:51.944Z,1.09
2022-12-12T09:45:19.727Z,1.10
2022-12-12T09:47:51.143Z,1.12
2022-12-12T09:50:47.321Z,1.16
2022-12-12T09:53:17.846Z,1.19
2022-12-12T09:56:08.171Z,1.25
2022-12-12T09:58:58.075Z,1.30
2022-12-12T10:01:37.096Z,1.35
2022-12-12T10:04:20.562Z,1.40
2022-12-12T10:06:52.822Z,1.46
2022-12-12T10:09:43.924Z,1.50
2022-12-12T10:12:15.876Z,1.54
2022-12-12T10:14:48.616Z,1.55
2022-12-12T10:17:20.715Z,1.57
2022-12-12T10:19:59.956Z,1.60
2022-12-12T10:22:37.655Z,1.62
2022-12-12T10:25:50.321Z,1.65
2022-12-12T10:28:20.867Z,1.67
2022-12-12T10:31:14.037Z,1.70
2022-12-12T10:34:25.270Z,1.71
2022-12-12T10:37:31.256Z,1.67
2022-12-12T10:40:03.663Z,1.64
2022-12-12T10:42:59.872Z,1.63
2022-12-12T10:46:08.646Z,1.60
2022-12-12T10:48:35.467Z,1.59
2022-12-12T10:51:15.335Z,1.63
2022-12-12T10:53:42.632Z,1.64
2022-12-12T10:56:19.415Z,1.66
2022-12-12T10:58:58.186Z,1.70
2022-12-12T11:02:07.846Z,1.71
2022-12-12T11:04:21.232Z,1.72
2022-12-12T11:06:51.731Z,1.76
2022-12-12T11:09:26.881Z,1.77
2022-12-12T11:12:17.095Z,1.80
2022-12-12T11:14:50.935Z,1.83
2022-12-12T11:17:31.772Z,1.82
2022-12-12T11:20:01.893Z,1.82
2022-12-12T11:22:33.607Z,1.85
2022-12-12T11:25:00.893Z,1.91
2022-12-12T11:27:40.870Z,1.96
2022-12-12T11:30:39.049Z,1.99
2022-12-12T11:33:17.465Z,2.01
2022-12-12T11:35:47.665Z,2.02
2022-12-12T11:38:30.124Z,2.05
2022-12-12T11:41:03.682Z,2.07
2022-12-12T11:43:32.850Z,2.08
2022-12-12T11:46:16.145Z,2.11
2022-12-12T11:48:51.745Z,2.13
2022-12-12T11:51:45.274Z,2.13
2022-12-12T11:54:21.574Z,2.17
2022-12-12T11:57:03.492Z,2.18
2022-12-12T12:00:07.062Z,2.19
2022-12-12T12:03:04.889Z,2.22
2022-12-12T12:06:09.267Z,2.23
2022-12-12T12:09:31.824Z,2.23
2022-12-12T12:12:15.894Z,2.24
2022-12-12T12:14:57.598Z,2.28
2022-12-12T12:18:17.192Z,2.32
2022-12-12T12:20:53.687Z,2.34
2022-12-12T12:23:43.331Z,2.37
2022-12-12T12:26:35.472Z,2.39
2022-12-12T12:29:37.722Z,2.41
2022-12-12T12:32:41.822Z,2.44
2022-12-12T12:35:29.996Z,2.44
2022-12-12T12:38:10.748Z,2.47
2022-12-12T12:41:02.242Z,2.49
2022-12-12T12:43:57.723Z,2.50
2022-12-12T12:47:11.706Z,2.51
2022-12-12T12:49:49.678Z,2.50
2022-12-12T12:52:34.658Z,2.53
2022-12-12T12:55:02.527Z,2.51
2022-12-12T12:57:46.995Z,2.54
2022-12-12T13:00:19.561Z,2.52
2022-12-12T13:03:19.310Z,2.50
2022-12-12T13:05:52.470Z,2.47
2022-12-12T13:08:34.791Z,2.44
2022-12-12T13:11:14.214Z,2.42
2022-12-12T13:13:45.142Z,2.41
2022-12-12T13:16:17.318Z,2.42
2022-12-12T13:18:48.652Z,2.42
2022-12-12T13:21:48.958Z,2.42
2022-12-12T13:24:46.195Z,2.41
2022-12-12T13:27:29.538Z,2.41
2022-12-12T13:29:56.159Z,2.41
2022-12-12T13:32:44.446Z,2.43
2022-12-12T13:35:16.555Z,2.44
2022-12-12T13:37:52.696Z,2.45
2022-12-12T13:40:34.207Z,2.46
2022-12-12T13:43:09.647Z,2.47
2022-12-12T13:45:44.258Z,2.47
2022-12-12T13:48:34.109Z,2.42
2022-12-12T13:51:27.302Z,2.40
2022-12-12T13:54:20.591Z,2.41
2022-12-12T13:56:57.154Z,2.42
2022-12-12T13:59:25.072Z,2.43
2022-12-12T14:02:34.049Z,2.42
2022-12-12T14:05:25.768Z,2.40
2022-12-12T14:08:05.481Z,2.41
2022-12-12T14:10:40.470Z,2.41
2022-12-12T14:13:23.883Z,2.39
2022-12-12T14:16:04.315Z,2.36
2022-12-12T14:18:49.011Z,2.34
2022-12-12T14:21:19.364Z,2.30
2022-12-12T14:23:51.985Z,2.29
2022-12-12T14:26:38.937Z,2.24
2022-12-12T14:29:17.827Z,2.21
2022-12-12T14:32:07.240Z,2.16
2022-12-12T14:35:08.026Z,2.11
2022-12-12T14:38:13.981Z,2.05
2022-12-12T14:40:46.952Z,1.99
2022-12-12T14:43:28.079Z,1.96
2022-12-12T14:45:58.493Z,1.90
2022-12-12T14:48:29.217Z,1.88
2022-12-12T14:51:10.225Z,1.83
2022-12-12T14:53:36.891Z,1.76
2022-12-12T14:56:10.669Z,1.72
2022-12-12T14:58:45.587Z,1.67
2022-12-12T15:01:12.717Z,1.62
2022-12-12T15:03:49.907Z,1.56
2022-12-12T15:06:27.127Z,1.51
2022-12-12T15:08:56.127Z,1.45
2022-12-12T15:11:28.075Z,1.39
2022-12-12T15:13:59.288Z,1.35
2022-12-12T15:16:30.525Z,1.29
2022-12-12T15:18:59.364Z,1.24
2022-12-12T15:21:26.228Z,1.20
2022-12-12T15:23:53.278Z,1.16
2022-12-12T15:26:27.341Z,1.12
2022-12-12T15:28:54.240Z,1.08
2022-12-12T15:31:21.492Z,1.05
2022-12-12T15:33:49.802Z,1.03
2022-12-12T15:36:28.555Z,1.01
2022-12-12T15:39:16.387Z,0.97
2022-12-12T15:41:44.733Z,0.94
2022-12-12T15:44:18.356Z,0.90
2022-12-12T15:46:47.766Z,0.86
2022-12-12T15:49:42.732Z,0.82
2022-12-12T15:52:29.823Z,0.79
2022-12-12T15:54:59.892Z,0.76
2022-12-12T15:57:32.605Z,0.72
2022-12-12T16:00:05.652Z,0.70
2022-12-12T16:02:35.364Z,0.65
2022-12-12T16:05:23.588Z,0.63
2022-12-12T16:07:50.472Z,0.58
2022-12-12T16:10:24.559Z,0.55
2022-12-12T16:12:55.458Z,0.49
2022-12-12T16:15:48.665Z,0.46
2022-12-12T16:18:23.732Z,0.41
2022-12-12T16:20:57.324Z,0.37
2022-12-12T16:23:33.517Z,0.32
2022-12-12T16:26:00.326Z,0.28
2022-12-12T16:28:29.785Z,0.24
2022-12-12T16:31:14.760Z,0.20
2022-12-12T16:33:41.929Z,0.17
2022-12-12T16:36:14.844Z,0.15
2022-12-12T16:38:42.151Z,0.12
2022-12-12T16:41:17.627Z,0.09
2022-12-12T16:43:44.996Z,0.07
2022-12-12T16:46:24.622Z,0.05
2022-12-12T16:48:52.227Z,-0.01
2022-12-12T16:51:30.707Z,-0.02
2022-12-12T16:53:57.936Z,-0.06
2022-12-12T16:56:25.096Z,-0.06
2022-12-12T16:58:53.228Z,-0.09
2022-12-12T17:01:20.830Z,-0.10
2022-12-12T17:03:47.846Z,-0.12
2022-12-12T17:06:14.668Z,-0.15
2022-12-12T17:08:41.462Z,-0.18
2022-12-12T17:11:10.650Z,-0.19
2022-12-12T17:13:47.951Z,-0.22
2022-12-12T17:16:15.323Z,-0.24
2022-12-12T17:18:42.093Z,-0.27
2022-12-12T17:21:08.955Z,-0.29
2022-12-12T17:23:35.757Z,-0.32
2022-12-12T17:26:04.935Z,-0.35
2022-12-12T17:28:33.869Z,-0.36
2022-12-12T17:31:01.652Z,-0.39
2022-12-12T17:33:28.814Z,-0.42
2022-12-12T17:36:05.606Z,-0.45
2022-12-12T17:38:33.796Z,-0.46
2022-12-12T17:41:08.884Z,-0.48
2022-12-12T17:43:40.349Z,-0.51
2022-12-12T17:46:14.054Z,-0.53
2022-12-12T17:48:48.374Z,-0.56
2022-12-12T17:51:20.721Z,-0.59
2022-12-12T17:53:47.573Z,-0.60
2022-12-12T17:56:21.670Z,-0.62
2022-12-12T17:58:50.086Z,-0.63
2022-12-12T18:01:23.526Z,-0.65
2022-12-12T18:03:51.788Z,-0.67
2022-12-12T18:06:20.329Z,-0.70
2022-12-12T18:08:47.722Z,-0.71
2022-12-12T18:11:17.922Z,-0.72
2022-12-12T18:13:45.619Z,-0.75
2022-12-12T18:16:13.446Z,-0.77
2022-12-12T18:18:41.120Z,-0.80
2022-12-12T18:24:05.248Z,-0.87
2022-12-12T18:26:32.599Z,-0.90
2022-12-12T18:29:03.285Z,-0.91
2022-12-12T18:31:30.873Z,-0.93
2022-12-12T18:33:58.380Z,-0.95
2022-12-12T18:36:28.694Z,-0.97
2022-12-12T18:38:56.711Z,-0.98
2022-12-12T18:41:24.320Z,-0.99
2022-12-12T18:43:51.086Z,-1.01
2022-12-12T18:46:20.844Z,-1.03
2022-12-12T18:48:48.802Z,-1.03
2022-12-12T18:51:19.910Z,-1.05
2022-12-12T18:53:47.180Z,-1.07
2022-12-12T18:56:24.423Z,-1.07
2022-12-12T18:58:53.947Z,-1.10
2022-12-12T19:01:23.929Z,-1.13
2022-12-12T19:03:53.985Z,-1.14
2022-12-12T19:06:33.496Z,-1.19
2022-12-12T19:09:07.440Z,-1.21
2022-12-12T19:11:35.698Z,-1.24
2022-12-12T19:14:02.925Z,-1.26
2022-12-12T19:16:29.960Z,-1.28
2022-12-12T19:18:56.915Z,-1.29
2022-12-12T19:21:27.307Z,-1.32
2022-12-12T19:23:54.783Z,-1.33
2022-12-12T19:26:28.056Z,-1.35
2022-12-12T19:29:05.898Z,-1.37
2022-12-12T19:31:34.475Z,-1.40
2022-12-12T19:34:02.472Z,-1.42
2022-12-12T19:36:29.832Z,-1.44
2022-12-12T19:38:58.817Z,-1.44
2022-12-12T19:41:26.246Z,-1.45
2022-12-12T19:43:55.039Z,-1.47
2022-12-12T19:46:25.046Z,-1.48
2022-12-12T19:48:57.153Z,-1.50
2022-12-12T19:51:24.912Z,-1.53
2022-12-12T19:53:55.376Z,-1.54
2022-12-12T19:56:26.533Z,-1.57
2022-12-12T19:58:54.815Z,-1.59
2022-12-12T20:01:26.179Z,-1.62
2022-12-12T20:03:56.535Z,-1.65
2022-12-12T20:06:25.050Z,-1.67
2022-12-12T20:08:52.174Z,-1.68
2022-12-12T20:11:23.207Z,-1.69
2022-12-12T20:13:52.885Z,-1.71
2022-12-12T20:16:23.420Z,-1.76
2022-12-12T20:18:51.084Z,-1.76
2022-12-12T20:21:51.722Z,-1.77
2022-12-12T20:24:08.265Z,-1.78
2022-12-12T20:26:35.626Z,-1.79
2022-12-12T20:29:03.699Z,-1.83
2022-12-12T20:31:36.287Z,-1.84
2022-12-12T20:34:03.707Z,-1.85
2022-12-12T20:36:33.814Z,-1.85
2022-12-12T20:39:04.550Z,-1.86
2022-12-12T20:41:36.045Z,-1.87
2022-12-12T20:44:03.459Z,-1.89
2022-12-12T20:46:35.077Z,-1.89
2022-12-12T20:49:06.037Z,-1.92
2022-12-12T20:54:22.139Z,-1.97
2022-12-12T20:56:49.749Z,-1.99
2022-12-12T20:59:16.564Z,-2.00
2022-12-12T21:01:43.451Z,-2.03
2022-12-12T21:04:10.501Z,-2.04
2022-12-12T21:06:40.853Z,-2.05
2022-12-12T21:09:09.838Z,-2.09
2022-12-12T21:11:38.344Z,-2.09
2022-12-12T21:14:06.956Z,-2.11
2022-12-12T21:16:37.558Z,-2.12
2022-12-12T21:19:11.405Z,-2.14
2022-12-12T21:21:43.145Z,-2.16
2022-12-12T21:24:16.347Z,-2.16
2022-12-12T21:26:43.725Z,-2.18
2022-12-12T21:29:10.615Z,-2.21
2022-12-12T21:31:48.182Z,-2.20
2022-12-12T21:34:17.007Z,-2.23
2022-12-12T21:36:44.417Z,-2.24
2022-12-12T21:39:12.311Z,-2.25
2022-12-12T21:41:41.468Z,-2.27
2022-12-12T21:44:08.697Z,-2.30
2022-12-12T21:46:35.603Z,-2.31
2022-12-12T21:49:26.455Z,-2.33
2022-12-12T21:52:00.372Z,-2.36
2022-12-12T21:54:31.252Z,-2.39
2022-12-12T21:56:59.779Z,-2.39
2022-12-12T21:59:27.049Z,-2.42
2022-12-12T22:01:56.142Z,-2.42
2022-12-12T22:04:23.198Z,-2.42
2022-12-12T22:06:50.579Z,-2.45
2022-12-12T22:09:17.631Z,-2.46
2022-12-12T22:11:49.571Z,-2.48
2022-12-12T22:14:20.430Z,-2.49
2022-12-12T22:16:47.233Z,-2.49
2022-12-12T22:19:15.867Z,-2.51
2022-12-12T22:21:46.250Z,-2.53
2022-12-12T22:24:13.174Z,-2.54
2022-12-12T22:26:43.311Z,-2.54
2022-12-12T22:29:17.608Z,-2.53
2022-12-12T22:31:45.484Z,-2.56
2022-12-12T22:34:16.687Z,-2.57
2022-12-12T22:36:44.371Z,-2.59
2022-12-12T22:39:22.030Z,-2.58
2022-12-12T22:41:50.460Z,-2.63
2022-12-12T22:44:20.709Z,-2.63
2022-12-12T22:46:50.119Z,-2.64
2022-12-12T22:49:20.887Z,-2.64
2022-12-12T22:51:48.764Z,-2.66
2022-12-12T22:54:15.736Z,-2.66
2022-12-12T22:56:42.609Z,-2.68
2022-12-12T22:59:13.181Z,-2.68
2022-12-12T23:01:41.057Z,-2.67
2022-12-12T23:04:10.151Z,-2.70
2022-12-12T23:06:36.967Z,-2.69
2022-12-12T23:09:08.261Z,-2.69
2022-12-12T23:11:36.666Z,-2.72
2022-12-12T23:14:08.741Z,-2.72
2022-12-12T23:16:36.311Z,-2.75
2022-12-12T23:19:08.013Z,-2.75
2022-12-12T23:21:36.987Z,-2.77
2022-12-12T23:24:05.247Z,-2.79
2022-12-12T23:26:35.127Z,-2.81
2022-12-12T23:29:03.225Z,-2.83
2022-12-12T23:31:33.044Z,-2.84
2022-12-12T23:34:04.680Z,-2.85
2022-12-12T23:36:31.999Z,-2.87
2022-12-12T23:39:03.985Z,-2.88
2022-12-12T23:41:30.778Z,-2.90
2022-12-12T23:43:57.960Z,-2.90
2022-12-12T23:46:29.224Z,-2.91
2022-12-12T23:48:58.620Z,-2.93
2022-12-12T23:51:28.384Z,-2.93
2022-12-12T23:54:00.224Z,-2.96
2022-12-12T23:56:27.751Z,-2.96
2022-12-12T23:58:56.521Z,-2.98
